sensor_id;sensor_type;location;lat;lon;timestamp;P1;durP1;ratioP1;P2;durP2;ratioP2
56746;SDS011;42623;49.978;9.966;2023-05-15T00:00:09;6.27;;;3.70;;
56746;SDS011;42623;49.978;9.966;2023-05-15T00:00:19;6.43;;;3.70;;
56746;SDS011;42623;49.978;9.966;2023-05-15T00:00:30;6.72;;;3.92;;
56746;SDS011;42623;49.978;9.966;2023-05-15T00:00:40;6.43;;;4.07;;
56746;SDS011;42623;49.978;9.966;2023-05-15T00:00:50;6.43;;;4.30;;
56746;SDS011;42623;49.978;9.966;2023-05-15T00:01:01;6.13;;;4.07;;
56746;SDS011;42623;49.978;9.966;2023-05-15T00:01:11;6.77;;;4.10;;
56746;SDS011;42623;49.978;9.966;2023-05-15T00:01:21;6.77;;;3.87;;
56746;SDS011;42623;49.978;9.966;2023-05-15T00:01:32;7.18;;;4.15;;
56746;SDS011;42623;49.978;9.966;2023-05-15T00:01:42;6.77;;;3.93;;
56746;SDS011;42623;49.978;9.966;2023-05-15T00:01:52;6.53;;;3.70;;
56746;SDS011;42623;49.978;9.966;2023-05-15T00:02:02;5.93;;;3.30;;
56746;SDS011;42623;49.978;9.966;2023-05-15T00:02:13;5.77;;;3.37;;
56746;SDS011;42623;49.978;9.966;2023-05-15T00:02:23;5.93;;;3.60;;
56746;SDS011;42623;49.978;9.966;2023-05-15T00:02:33;5.80;;;3.60;;
56746;SDS011;42623;49.978;9.966;2023-05-15T00:02:44;6.10;;;3.70;;
56746;SDS011;42623;49.978;9.966;2023-05-15T00:02:54;6.13;;;3.60;;
56746;SDS011;42623;49.978;9.966;2023-05-15T00:03:06;6.25;;;3.53;;
56746;SDS011;42623;49.978;9.966;2023-05-15T00:03:16;6.03;;;3.40;;
56746;SDS011;42623;49.978;9.966;2023-05-15T00:03:27;5.68;;;3.40;;
56746;SDS011;42623;49.978;9.966;2023-05-15T00:03:37;5.68;;;3.45;;
56746;SDS011;42623;49.978;9.966;2023-05-15T00:03:47;6.10;;;3.70;;
56746;SDS011;42623;49.978;9.966;2023-05-15T00:03:57;6.07;;;3.60;;
56746;SDS011;42623;49.978;9.966;2023-05-15T00:04:07;6.07;;;3.77;;
56746;SDS011;42623;49.978;9.966;2023-05-15T00:04:18;6.03;;;3.78;;
56746;SDS011;42623;49.978;9.966;2023-05-15T00:04:28;6.47;;;4.00;;
56746;SDS011;42623;49.978;9.966;2023-05-15T00:04:38;6.47;;;3.63;;
56746;SDS011;42623;49.978;9.966;2023-05-15T00:04:48;6.53;;;3.67;;
56746;SDS011;42623;49.978;9.966;2023-05-15T00:04:58;6.33;;;3.67;;
56746;SDS011;42623;49.978;9.966;2023-05-15T00:05:09;6.63;;;4.15;;
56746;SDS011;42623;49.978;9.966;2023-05-15T00:05:19;6.50;;;4.27;;
56746;SDS011;42623;49.978;9.966;2023-05-15T00:05:30;6.60;;;4.32;;
56746;SDS011;42623;49.978;9.966;2023-05-15T00:05:40;6.80;;;4.20;;
56746;SDS011;42623;49.978;9.966;2023-05-15T00:05:50;7.20;;;4.23;;
56746;SDS011;42623;49.978;9.966;2023-05-15T00:06:01;7.15;;;4.00;;
56746;SDS011;42623;49.978;9.966;2023-05-15T00:06:11;7.03;;;4.07;;
56746;SDS011;42623;49.978;9.966;2023-05-15T00:06:21;6.60;;;3.93;;
56746;SDS011;42623;49.978;9.966;2023-05-15T00:06:32;6.63;;;4.00;;
56746;SDS011;42623;49.978;9.966;2023-05-15T00:06:42;6.83;;;4.00;;
56746;SDS011;42623;49.978;9.966;2023-05-15T00:06:52;6.97;;;4.00;;
56746;SDS011;42623;49.978;9.966;2023-05-15T00:07:02;6.60;;;3.80;;
56746;SDS011;42623;49.978;9.966;2023-05-15T00:07:13;5.97;;;3.53;;
56746;SDS011;42623;49.978;9.966;2023-05-15T00:07:23;5.97;;;3.53;;
56746;SDS011;42623;49.978;9.966;2023-05-15T00:07:33;6.30;;;3.83;;
56746;SDS011;42623;49.978;9.966;2023-05-15T00:07:44;5.90;;;3.63;;
56746;SDS011;42623;49.978;9.966;2023-05-15T00:07:54;5.90;;;3.63;;
56746;SDS011;42623;49.978;9.966;2023-05-15T00:08:04;6.40;;;3.97;;
56746;SDS011;42623;49.978;9.966;2023-05-15T00:08:15;7.13;;;4.50;;
56746;SDS011;42623;49.978;9.966;2023-05-15T00:08:25;7.33;;;4.67;;
56746;SDS011;42623;49.978;9.966;2023-05-15T00:08:35;6.80;;;4.27;;
56746;SDS011;42623;49.978;9.966;2023-05-15T00:08:45;6.57;;;3.77;;
56746;SDS011;42623;49.978;9.966;2023-05-15T00:08:55;7.38;;;3.85;;
56746;SDS011;42623;49.978;9.966;2023-05-15T00:09:06;7.43;;;3.93;;
56746;SDS011;42623;49.978;9.966;2023-05-15T00:09:16;6.93;;;3.93;;
56746;SDS011;42623;49.978;9.966;2023-05-15T00:09:26;5.73;;;3.60;;
56746;SDS011;42623;49.978;9.966;2023-05-15T00:09:36;5.83;;;3.57;;
56746;SDS011;42623;49.978;9.966;2023-05-15T00:09:46;5.90;;;3.50;;
56746;SDS011;42623;49.978;9.966;2023-05-15T00:09:57;7.47;;;3.80;;
56746;SDS011;42623;49.978;9.966;2023-05-15T00:10:07;7.87;;;3.87;;
56746;SDS011;42623;49.978;9.966;2023-05-15T00:10:17;7.78;;;3.90;;
56746;SDS011;42623;49.978;9.966;2023-05-15T00:10:28;6.93;;;3.70;;
56746;SDS011;42623;49.978;9.966;2023-05-15T00:10:38;6.27;;;3.53;;
56746;SDS011;42623;49.978;9.966;2023-05-15T00:10:48;5.60;;;3.20;;
56746;SDS011;42623;49.978;9.966;2023-05-15T00:10:58;5.87;;;3.23;;
56746;SDS011;42623;49.978;9.966;2023-05-15T00:11:09;6.20;;;3.30;;
56746;SDS011;42623;49.978;9.966;2023-05-15T00:11:19;7.20;;;3.50;;
56746;SDS011;42623;49.978;9.966;2023-05-15T00:11:32;7.15;;;3.83;;
56746;SDS011;42623;49.978;9.966;2023-05-15T00:11:42;6.83;;;3.87;;
56746;SDS011;42623;49.978;9.966;2023-05-15T00:11:52;6.10;;;3.70;;
56746;SDS011;42623;49.978;9.966;2023-05-15T00:12:02;6.27;;;4.07;;
56746;SDS011;42623;49.978;9.966;2023-05-15T00:12:13;6.97;;;4.30;;
56746;SDS011;42623;49.978;9.966;2023-05-15T00:12:23;7.20;;;4.03;;
56746;SDS011;42623;49.978;9.966;2023-05-15T00:12:33;7.00;;;3.37;;
56746;SDS011;42623;49.978;9.966;2023-05-15T00:12:43;6.80;;;3.23;;
56746;SDS011;42623;49.978;9.966;2023-05-15T00:12:54;6.55;;;3.25;;
56746;SDS011;42623;49.978;9.966;2023-05-15T00:13:04;6.23;;;3.37;;
56746;SDS011;42623;49.978;9.966;2023-05-15T00:13:15;6.00;;;3.53;;
56746;SDS011;42623;49.978;9.966;2023-05-15T00:13:26;6.32;;;3.65;;
56746;SDS011;42623;49.978;9.966;2023-05-15T00:13:36;6.37;;;3.77;;
56746;SDS011;42623;49.978;9.966;2023-05-15T00:13:47;7.25;;;3.65;;
56746;SDS011;42623;49.978;9.966;2023-05-15T00:13:57;7.43;;;3.67;;
56746;SDS011;42623;49.978;9.966;2023-05-15T00:14:07;7.10;;;3.37;;
56746;SDS011;42623;49.978;9.966;2023-05-15T00:14:18;7.33;;;3.80;;
56746;SDS011;42623;49.978;9.966;2023-05-15T00:14:28;6.90;;;3.80;;
56746;SDS011;42623;49.978;9.966;2023-05-15T00:14:38;6.60;;;3.90;;
56746;SDS011;42623;49.978;9.966;2023-05-15T00:14:48;6.17;;;3.93;;
56746;SDS011;42623;49.978;9.966;2023-05-15T00:14:58;7.13;;;4.03;;
56746;SDS011;42623;49.978;9.966;2023-05-15T00:15:08;8.10;;;4.30;;
56746;SDS011;42623;49.978;9.966;2023-05-15T00:15:19;8.07;;;4.22;;
56746;SDS011;42623;49.978;9.966;2023-05-15T00:15:29;7.13;;;4.20;;
56746;SDS011;42623;49.978;9.966;2023-05-15T00:15:39;5.90;;;3.87;;
56746;SDS011;42623;49.978;9.966;2023-05-15T00:15:49;5.77;;;3.73;;
56746;SDS011;42623;49.978;9.966;2023-05-15T00:15:59;5.50;;;3.30;;
56746;SDS011;42623;49.978;9.966;2023-05-15T00:16:10;6.03;;;3.58;;
56746;SDS011;42623;49.978;9.966;2023-05-15T00:16:20;5.63;;;3.30;;
56746;SDS011;42623;49.978;9.966;2023-05-15T00:16:30;5.77;;;3.47;;
56746;SDS011;42623;49.978;9.966;2023-05-15T00:16:40;5.30;;;3.27;;
56746;SDS011;42623;49.978;9.966;2023-05-15T00:16:50;6.40;;;3.70;;
56746;SDS011;42623;49.978;9.966;2023-05-15T00:17:00;7.00;;;3.83;;
56746;SDS011;42623;49.978;9.966;2023-05-15T00:17:11;7.33;;;4.10;;
56746;SDS011;42623;49.978;9.966;2023-05-15T00:17:21;6.73;;;4.13;;
56746;SDS011;42623;49.978;9.966;2023-05-15T00:17:31;7.05;;;4.32;;
56746;SDS011;42623;49.978;9.966;2023-05-15T00:17:41;6.57;;;3.83;;
56746;SDS011;42623;49.978;9.966;2023-05-15T00:17:52;6.37;;;3.57;;
56746;SDS011;42623;49.978;9.966;2023-05-15T00:18:02;5.90;;;3.45;;
56746;SDS011;42623;49.978;9.966;2023-05-15T00:18:12;6.30;;;3.70;;
56746;SDS011;42623;49.978;9.966;2023-05-15T00:18:23;6.50;;;3.93;;
56746;SDS011;42623;49.978;9.966;2023-05-15T00:18:33;6.82;;;3.92;;
56746;SDS011;42623;49.978;9.966;2023-05-15T00:18:43;6.70;;;4.10;;
56746;SDS011;42623;49.978;9.966;2023-05-15T00:18:53;6.40;;;3.93;;
56746;SDS011;42623;49.978;9.966;2023-05-15T00:19:04;6.10;;;3.80;;
56746;SDS011;42623;49.978;9.966;2023-05-15T00:19:14;7.20;;;4.03;;
56746;SDS011;42623;49.978;9.966;2023-05-15T00:19:25;7.68;;;4.43;;
56746;SDS011;42623;49.978;9.966;2023-05-15T00:19:35;7.80;;;4.47;;
56746;SDS011;42623;49.978;9.966;2023-05-15T00:19:45;7.33;;;4.33;;
56746;SDS011;42623;49.978;9.966;2023-05-15T00:19:55;8.07;;;4.20;;
56746;SDS011;42623;49.978;9.966;2023-05-15T00:20:08;8.40;;;4.25;;
56746;SDS011;42623;49.978;9.966;2023-05-15T00:20:19;7.80;;;4.13;;
56746;SDS011;42623;49.978;9.966;2023-05-15T00:20:29;7.13;;;3.90;;
56746;SDS011;42623;49.978;9.966;2023-05-15T00:20:39;6.53;;;3.83;;
56746;SDS011;42623;49.978;9.966;2023-05-15T00:20:50;7.10;;;4.00;;
56746;SDS011;42623;49.978;9.966;2023-05-15T00:21:01;6.85;;;3.97;;
56746;SDS011;42623;49.978;9.966;2023-05-15T00:21:11;7.47;;;4.17;;
56746;SDS011;42623;49.978;9.966;2023-05-15T00:21:22;7.53;;;4.17;;
56746;SDS011;42623;49.978;9.966;2023-05-15T00:21:32;7.57;;;4.23;;
56746;SDS011;42623;49.978;9.966;2023-05-15T00:21:42;7.07;;;4.28;;
56746;SDS011;42623;49.978;9.966;2023-05-15T00:21:52;6.83;;;4.23;;
56746;SDS011;42623;49.978;9.966;2023-05-15T00:22:03;6.57;;;4.17;;
56746;SDS011;42623;49.978;9.966;2023-05-15T00:22:13;6.07;;;3.75;;
56746;SDS011;42623;49.978;9.966;2023-05-15T00:22:23;6.37;;;3.70;;
56746;SDS011;42623;49.978;9.966;2023-05-15T00:22:33;6.63;;;3.83;;
56746;SDS011;42623;49.978;9.966;2023-05-15T00:22:44;6.55;;;3.90;;
56746;SDS011;42623;49.978;9.966;2023-05-15T00:22:54;6.37;;;3.93;;
56746;SDS011;42623;49.978;9.966;2023-05-15T00:23:04;6.13;;;3.70;;
56746;SDS011;42623;49.978;9.966;2023-05-15T00:23:14;6.17;;;3.70;;
56746;SDS011;42623;49.978;9.966;2023-05-15T00:23:24;6.27;;;3.63;;
56746;SDS011;42623;49.978;9.966;2023-05-15T00:23:35;6.20;;;3.60;;
56746;SDS011;42623;49.978;9.966;2023-05-15T00:23:45;6.00;;;3.50;;
56746;SDS011;42623;49.978;9.966;2023-05-15T00:23:56;6.00;;;3.67;;
56746;SDS011;42623;49.978;9.966;2023-05-15T00:24:07;6.10;;;3.83;;
56746;SDS011;42623;49.978;9.966;2023-05-15T00:24:17;6.10;;;4.00;;
56746;SDS011;42623;49.978;9.966;2023-05-15T00:24:27;6.13;;;4.03;;
56746;SDS011;42623;49.978;9.966;2023-05-15T00:24:38;6.37;;;4.20;;
56746;SDS011;42623;49.978;9.966;2023-05-15T00:24:48;6.67;;;4.23;;
56746;SDS011;42623;49.978;9.966;2023-05-15T00:24:58;6.43;;;4.10;;
56746;SDS011;42623;49.978;9.966;2023-05-15T00:25:08;7.53;;;4.05;;
56746;SDS011;42623;49.978;9.966;2023-05-15T00:25:19;7.90;;;4.10;;
56746;SDS011;42623;49.978;9.966;2023-05-15T00:25:29;8.23;;;4.10;;
56746;SDS011;42623;49.978;9.966;2023-05-15T00:25:39;8.27;;;4.37;;
56746;SDS011;42623;49.978;9.966;2023-05-15T00:25:49;9.23;;;4.40;;
56746;SDS011;42623;49.978;9.966;2023-05-15T00:26:00;8.70;;;4.30;;
56746;SDS011;42623;49.978;9.966;2023-05-15T00:26:10;7.63;;;4.13;;
56746;SDS011;42623;49.978;9.966;2023-05-15T00:26:21;6.32;;;3.85;;
56746;SDS011;42623;49.978;9.966;2023-05-15T00:26:32;7.20;;;4.50;;
56746;SDS011;42623;49.978;9.966;2023-05-15T00:26:42;7.90;;;4.97;;
56746;SDS011;42623;49.978;9.966;2023-05-15T00:26:52;7.70;;;4.93;;
56746;SDS011;42623;49.978;9.966;2023-05-15T00:27:02;7.43;;;4.70;;
56746;SDS011;42623;49.978;9.966;2023-05-15T00:27:13;6.50;;;4.00;;
56746;SDS011;42623;49.978;9.966;2023-05-15T00:27:23;6.37;;;4.03;;
56746;SDS011;42623;49.978;9.966;2023-05-15T00:27:33;6.13;;;3.97;;
56746;SDS011;42623;49.978;9.966;2023-05-15T00:27:44;6.30;;;4.13;;
56746;SDS011;42623;49.978;9.966;2023-05-15T00:27:54;6.88;;;4.25;;
56746;SDS011;42623;49.978;9.966;2023-05-15T00:28:04;7.00;;;4.27;;
56746;SDS011;42623;49.978;9.966;2023-05-15T00:28:15;6.90;;;4.27;;
56746;SDS011;42623;49.978;9.966;2023-05-15T00:28:25;6.50;;;4.23;;
56746;SDS011;42623;49.978;9.966;2023-05-15T00:28:35;6.70;;;4.40;;
56746;SDS011;42623;49.978;9.966;2023-05-15T00:28:45;7.97;;;4.25;;
56746;SDS011;42623;49.978;9.966;2023-05-15T00:28:56;7.83;;;4.13;;
56746;SDS011;42623;49.978;9.966;2023-05-15T00:29:06;7.57;;;3.83;;
56746;SDS011;42623;49.978;9.966;2023-05-15T00:29:16;6.20;;;3.67;;
56746;SDS011;42623;49.978;9.966;2023-05-15T00:29:27;6.57;;;3.47;;
56746;SDS011;42623;49.978;9.966;2023-05-15T00:29:37;6.60;;;3.60;;
56746;SDS011;42623;49.978;9.966;2023-05-15T00:29:47;6.50;;;3.70;;
56746;SDS011;42623;49.978;9.966;2023-05-15T00:29:57;6.10;;;3.73;;
56746;SDS011;42623;49.978;9.966;2023-05-15T00:30:07;5.90;;;3.80;;
56746;SDS011;42623;49.978;9.966;2023-05-15T00:30:18;6.05;;;3.83;;
56746;SDS011;42623;49.978;9.966;2023-05-15T00:30:28;6.03;;;3.70;;
56746;SDS011;42623;49.978;9.966;2023-05-15T00:30:38;6.23;;;3.60;;
56746;SDS011;42623;49.978;9.966;2023-05-15T00:30:48;6.00;;;3.57;;
56746;SDS011;42623;49.978;9.966;2023-05-15T00:30:58;6.40;;;3.83;;
56746;SDS011;42623;49.978;9.966;2023-05-15T00:31:09;6.70;;;4.07;;
56746;SDS011;42623;49.978;9.966;2023-05-15T00:31:21;7.20;;;4.00;;
56746;SDS011;42623;49.978;9.966;2023-05-15T00:31:31;7.60;;;3.73;;
56746;SDS011;42623;49.978;9.966;2023-05-15T00:31:42;6.97;;;3.28;;
56746;SDS011;42623;49.978;9.966;2023-05-15T00:31:52;6.13;;;3.30;;
56746;SDS011;42623;49.978;9.966;2023-05-15T00:32:02;5.40;;;3.15;;
56746;SDS011;42623;49.978;9.966;2023-05-15T00:32:13;5.40;;;3.30;;
56746;SDS011;42623;49.978;9.966;2023-05-15T00:32:23;5.73;;;3.43;;
56746;SDS011;42623;49.978;9.966;2023-05-15T00:32:33;5.83;;;3.50;;
56746;SDS011;42623;49.978;9.966;2023-05-15T00:32:43;5.70;;;3.30;;
56746;SDS011;42623;49.978;9.966;2023-05-15T00:32:53;5.37;;;3.27;;
56746;SDS011;42623;49.978;9.966;2023-05-15T00:33:03;5.33;;;3.27;;
56746;SDS011;42623;49.978;9.966;2023-05-15T00:33:14;5.63;;;3.47;;
56746;SDS011;42623;49.978;9.966;2023-05-15T00:33:24;6.05;;;3.65;;
56746;SDS011;42623;49.978;9.966;2023-05-15T00:33:34;6.33;;;4.00;;
56746;SDS011;42623;49.978;9.966;2023-05-15T00:33:44;6.43;;;3.83;;
56746;SDS011;42623;49.978;9.966;2023-05-15T00:33:55;6.27;;;3.67;;
56746;SDS011;42623;49.978;9.966;2023-05-15T00:34:05;6.38;;;3.50;;
56746;SDS011;42623;49.978;9.966;2023-05-15T00:34:15;6.50;;;3.57;;
56746;SDS011;42623;49.978;9.966;2023-05-15T00:34:25;6.57;;;3.77;;
56746;SDS011;42623;49.978;9.966;2023-05-15T00:34:35;6.30;;;3.80;;
56746;SDS011;42623;49.978;9.966;2023-05-15T00:34:45;6.27;;;3.83;;
56746;SDS011;42623;49.978;9.966;2023-05-15T00:34:56;6.88;;;3.92;;
56746;SDS011;42623;49.978;9.966;2023-05-15T00:35:06;6.63;;;3.77;;
56746;SDS011;42623;49.978;9.966;2023-05-15T00:35:16;6.13;;;3.73;;
56746;SDS011;42623;49.978;9.966;2023-05-15T00:35:26;5.83;;;3.90;;
56746;SDS011;42623;49.978;9.966;2023-05-15T00:35:36;6.20;;;4.15;;
56746;SDS011;42623;49.978;9.966;2023-05-15T00:35:47;6.37;;;4.27;;
56746;SDS011;42623;49.978;9.966;2023-05-15T00:35:57;6.50;;;4.23;;
56746;SDS011;42623;49.978;9.966;2023-05-15T00:36:07;6.27;;;3.90;;
56746;SDS011;42623;49.978;9.966;2023-05-15T00:36:17;6.53;;;3.80;;
56746;SDS011;42623;49.978;9.966;2023-05-15T00:36:30;6.20;;;3.80;;
56746;SDS011;42623;49.978;9.966;2023-05-15T00:36:40;6.53;;;4.03;;
56746;SDS011;42623;49.978;9.966;2023-05-15T00:36:50;6.17;;;3.97;;
56746;SDS011;42623;49.978;9.966;2023-05-15T00:37:01;5.93;;;3.77;;
56746;SDS011;42623;49.978;9.966;2023-05-15T00:37:11;6.10;;;3.60;;
56746;SDS011;42623;49.978;9.966;2023-05-15T00:37:22;5.93;;;3.40;;
56746;SDS011;42623;49.978;9.966;2023-05-15T00:37:32;6.00;;;3.33;;
56746;SDS011;42623;49.978;9.966;2023-05-15T00:37:42;6.10;;;3.58;;
56746;SDS011;42623;49.978;9.966;2023-05-15T00:37:52;6.17;;;3.53;;
56746;SDS011;42623;49.978;9.966;2023-05-15T00:38:02;6.13;;;3.47;;
56746;SDS011;42623;49.978;9.966;2023-05-15T00:38:13;5.82;;;3.30;;
56746;SDS011;42623;49.978;9.966;2023-05-15T00:38:23;6.30;;;3.60;;
56746;SDS011;42623;49.978;9.966;2023-05-15T00:38:33;6.53;;;3.90;;
56746;SDS011;42623;49.978;9.966;2023-05-15T00:38:43;6.43;;;3.93;;
56746;SDS011;42623;49.978;9.966;2023-05-15T00:38:53;6.30;;;3.67;;
56746;SDS011;42623;49.978;9.966;2023-05-15T00:39:04;6.03;;;3.35;;
56746;SDS011;42623;49.978;9.966;2023-05-15T00:39:14;6.00;;;3.13;;
56746;SDS011;42623;49.978;9.966;2023-05-15T00:39:24;5.63;;;3.27;;
56746;SDS011;42623;49.978;9.966;2023-05-15T00:39:35;5.60;;;3.40;;
56746;SDS011;42623;49.978;9.966;2023-05-15T00:39:45;6.20;;;3.63;;
56746;SDS011;42623;49.978;9.966;2023-05-15T00:39:55;6.45;;;3.75;;
56746;SDS011;42623;49.978;9.966;2023-05-15T00:40:06;7.13;;;3.80;;
56746;SDS011;42623;49.978;9.966;2023-05-15T00:40:19;6.53;;;3.55;;
56746;SDS011;42623;49.978;9.966;2023-05-15T00:40:30;6.53;;;3.42;;
56746;SDS011;42623;49.978;9.966;2023-05-15T00:40:41;6.10;;;3.60;;
56746;SDS011;42623;49.978;9.966;2023-05-15T00:40:52;6.00;;;3.63;;
56746;SDS011;42623;49.978;9.966;2023-05-15T00:41:03;6.85;;;3.90;;
56746;SDS011;42623;49.978;9.966;2023-05-15T00:41:13;6.73;;;3.93;;
56746;SDS011;42623;49.978;9.966;2023-05-15T00:41:24;6.57;;;3.80;;
56746;SDS011;42623;49.978;9.966;2023-05-15T00:41:37;5.65;;;3.35;;
56746;SDS011;42623;49.978;9.966;2023-05-15T00:41:47;6.13;;;3.23;;
56746;SDS011;42623;49.978;9.966;2023-05-15T00:41:59;6.13;;;3.30;;
56746;SDS011;42623;49.978;9.966;2023-05-15T00:42:09;5.88;;;3.20;;
56746;SDS011;42623;49.978;9.966;2023-05-15T00:42:19;5.40;;;3.37;;
56746;SDS011;42623;49.978;9.966;2023-05-15T00:42:31;5.70;;;3.47;;
56746;SDS011;42623;49.978;9.966;2023-05-15T00:42:41;5.80;;;3.50;;
56746;SDS011;42623;49.978;9.966;2023-05-15T00:42:52;6.23;;;3.47;;
56746;SDS011;42623;49.978;9.966;2023-05-15T00:43:03;6.57;;;3.40;;
56746;SDS011;42623;49.978;9.966;2023-05-15T00:43:13;7.18;;;3.70;;
56746;SDS011;42623;49.978;9.966;2023-05-15T00:43:24;6.80;;;3.72;;
56746;SDS011;42623;49.978;9.966;2023-05-15T00:43:34;6.20;;;3.72;;
56746;SDS011;42623;49.978;9.966;2023-05-15T00:43:45;6.00;;;3.47;;
56746;SDS011;42623;49.978;9.966;2023-05-15T00:43:55;6.28;;;3.60;;
56746;SDS011;42623;49.978;9.966;2023-05-15T00:44:06;6.13;;;3.50;;
56746;SDS011;42623;49.978;9.966;2023-05-15T00:44:17;6.40;;;3.90;;
56746;SDS011;42623;49.978;9.966;2023-05-15T00:44:31;7.10;;;3.97;;
56746;SDS011;42623;49.978;9.966;2023-05-15T00:44:43;7.28;;;4.10;;
56746;SDS011;42623;49.978;9.966;2023-05-15T00:44:53;6.80;;;3.90;;
56746;SDS011;42623;49.978;9.966;2023-05-15T00:45:05;6.57;;;3.95;;
56746;SDS011;42623;49.978;9.966;2023-05-15T00:45:18;6.53;;;4.03;;
56746;SDS011;42623;49.978;9.966;2023-05-15T00:45:28;5.90;;;3.80;;
56746;SDS011;42623;49.978;9.966;2023-05-15T00:45:39;6.13;;;3.72;;
56746;SDS011;42623;49.978;9.966;2023-05-15T00:45:51;6.20;;;3.60;;
56746;SDS011;42623;49.978;9.966;2023-05-15T00:46:01;6.37;;;3.77;;
56746;SDS011;42623;49.978;9.966;2023-05-15T00:46:12;5.90;;;3.42;;
56746;SDS011;42623;49.978;9.966;2023-05-15T00:46:23;6.55;;;3.55;;
56746;SDS011;42623;49.978;9.966;2023-05-15T00:46:33;6.30;;;3.73;;
56746;SDS011;42623;49.978;9.966;2023-05-15T00:46:44;6.70;;;3.97;;
56746;SDS011;42623;49.978;9.966;2023-05-15T00:46:55;6.88;;;4.13;;
56746;SDS011;42623;49.978;9.966;2023-05-15T00:47:06;7.05;;;4.20;;
56746;SDS011;42623;49.978;9.966;2023-05-15T00:47:19;6.35;;;3.70;;
56746;SDS011;42623;49.978;9.966;2023-05-15T00:47:29;5.97;;;3.53;;
56746;SDS011;42623;49.978;9.966;2023-05-15T00:47:41;5.82;;;3.28;;
56746;SDS011;42623;49.978;9.966;2023-05-15T00:47:52;6.50;;;3.43;;
56746;SDS011;42623;49.978;9.966;2023-05-15T00:48:03;6.50;;;3.40;;
56746;SDS011;42623;49.978;9.966;2023-05-15T00:48:14;6.72;;;3.67;;
56746;SDS011;42623;49.978;9.966;2023-05-15T00:48:25;7.63;;;4.05;;
56746;SDS011;42623;49.978;9.966;2023-05-15T00:48:36;7.32;;;4.18;;
56746;SDS011;42623;49.978;9.966;2023-05-15T00:48:47;6.87;;;3.83;;
56746;SDS011;42623;49.978;9.966;2023-05-15T00:48:58;6.28;;;3.65;;
56746;SDS011;42623;49.978;9.966;2023-05-15T00:49:09;6.43;;;3.70;;
56746;SDS011;42623;49.978;9.966;2023-05-15T00:49:22;6.18;;;3.65;;
56746;SDS011;42623;49.978;9.966;2023-05-15T00:49:32;6.63;;;3.80;;
56746;SDS011;42623;49.978;9.966;2023-05-15T00:49:44;7.03;;;3.65;;
56746;SDS011;42623;49.978;9.966;2023-05-15T00:49:55;6.97;;;3.60;;
56746;SDS011;42623;49.978;9.966;2023-05-15T00:50:06;6.35;;;3.53;;
56746;SDS011;42623;49.978;9.966;2023-05-15T00:50:17;6.30;;;3.40;;
56746;SDS011;42623;49.978;9.966;2023-05-15T00:50:28;6.63;;;3.35;;
56746;SDS011;42623;49.978;9.966;2023-05-15T00:50:38;6.90;;;3.50;;
56746;SDS011;42623;49.978;9.966;2023-05-15T00:50:50;7.70;;;3.67;;
56746;SDS011;42623;49.978;9.966;2023-05-15T00:51:00;7.50;;;3.95;;
56746;SDS011;42623;49.978;9.966;2023-05-15T00:51:11;7.60;;;4.03;;
56746;SDS011;42623;49.978;9.966;2023-05-15T00:51:21;7.20;;;4.10;;
56746;SDS011;42623;49.978;9.966;2023-05-15T00:51:31;6.87;;;3.90;;
56746;SDS011;42623;49.978;9.966;2023-05-15T00:51:41;6.55;;;3.67;;
56746;SDS011;42623;49.978;9.966;2023-05-15T00:51:52;6.10;;;3.73;;
56746;SDS011;42623;49.978;9.966;2023-05-15T00:52:02;6.10;;;3.78;;
56746;SDS011;42623;49.978;9.966;2023-05-15T00:52:13;6.17;;;3.80;;
56746;SDS011;42623;49.978;9.966;2023-05-15T00:52:23;6.68;;;3.90;;
56746;SDS011;42623;49.978;9.966;2023-05-15T00:52:35;6.82;;;3.92;;
56746;SDS011;42623;49.978;9.966;2023-05-15T00:52:45;6.63;;;3.97;;
56746;SDS011;42623;49.978;9.966;2023-05-15T00:52:56;6.22;;;3.92;;
56746;SDS011;42623;49.978;9.966;2023-05-15T00:53:06;5.90;;;3.60;;
56746;SDS011;42623;49.978;9.966;2023-05-15T00:53:17;5.90;;;3.43;;
56746;SDS011;42623;49.978;9.966;2023-05-15T00:53:27;6.05;;;3.45;;
56746;SDS011;42623;49.978;9.966;2023-05-15T00:53:38;7.10;;;3.77;;
56746;SDS011;42623;49.978;9.966;2023-05-15T00:53:49;7.25;;;3.92;;
56746;SDS011;42623;49.978;9.966;2023-05-15T00:54:01;6.50;;;3.55;;
56746;SDS011;42623;49.978;9.966;2023-05-15T00:54:11;6.30;;;3.80;;
56746;SDS011;42623;49.978;9.966;2023-05-15T00:54:21;6.40;;;3.90;;
56746;SDS011;42623;49.978;9.966;2023-05-15T00:54:31;7.97;;;4.20;;
56746;SDS011;42623;49.978;9.966;2023-05-15T00:54:41;7.63;;;3.88;;
56746;SDS011;42623;49.978;9.966;2023-05-15T00:54:52;7.50;;;3.73;;
56746;SDS011;42623;49.978;9.966;2023-05-15T00:55:02;5.90;;;3.60;;
56746;SDS011;42623;49.978;9.966;2023-05-15T00:55:12;5.93;;;3.70;;
56746;SDS011;42623;49.978;9.966;2023-05-15T00:55:23;5.40;;;3.40;;
56746;SDS011;42623;49.978;9.966;2023-05-15T00:55:34;5.47;;;3.45;;
56746;SDS011;42623;49.978;9.966;2023-05-15T00:55:45;5.65;;;3.65;;
56746;SDS011;42623;49.978;9.966;2023-05-15T00:55:56;6.60;;;4.10;;
56746;SDS011;42623;49.978;9.966;2023-05-15T00:56:06;6.72;;;4.15;;
56746;SDS011;42623;49.978;9.966;2023-05-15T00:56:17;6.73;;;4.00;;
56746;SDS011;42623;49.978;9.966;2023-05-15T00:56:27;6.38;;;3.92;;
56746;SDS011;42623;49.978;9.966;2023-05-15T00:56:39;6.15;;;3.60;;
56746;SDS011;42623;49.978;9.966;2023-05-15T00:56:50;6.22;;;3.63;;
56746;SDS011;42623;49.978;9.966;2023-05-15T00:57:01;7.82;;;3.95;;
56746;SDS011;42623;49.978;9.966;2023-05-15T00:57:13;8.20;;;4.28;;
56746;SDS011;42623;49.978;9.966;2023-05-15T00:57:24;7.25;;;4.20;;
56746;SDS011;42623;49.978;9.966;2023-05-15T00:57:36;6.53;;;4.28;;
56746;SDS011;42623;49.978;9.966;2023-05-15T00:57:47;6.50;;;4.03;;
56746;SDS011;42623;49.978;9.966;2023-05-15T00:57:57;6.53;;;3.97;;
56746;SDS011;42623;49.978;9.966;2023-05-15T00:58:09;6.50;;;3.88;;
56746;SDS011;42623;49.978;9.966;2023-05-15T00:58:19;8.15;;;3.97;;
56746;SDS011;42623;49.978;9.966;2023-05-15T00:58:30;8.17;;;4.07;;
56746;SDS011;42623;49.978;9.966;2023-05-15T00:58:40;7.90;;;3.80;;
56746;SDS011;42623;49.978;9.966;2023-05-15T00:58:51;5.80;;;3.47;;
56746;SDS011;42623;49.978;9.966;2023-05-15T00:59:03;6.10;;;3.50;;
56746;SDS011;42623;49.978;9.966;2023-05-15T00:59:13;6.20;;;3.75;;
56746;SDS011;42623;49.978;9.966;2023-05-15T00:59:25;6.23;;;3.73;;
56746;SDS011;42623;49.978;9.966;2023-05-15T00:59:37;5.82;;;3.53;;
56746;SDS011;42623;49.978;9.966;2023-05-15T00:59:47;5.75;;;3.42;;
56746;SDS011;42623;49.978;9.966;2023-05-15T01:00:00;5.25;;;3.30;;
56746;SDS011;42623;49.978;9.966;2023-05-15T01:00:11;5.13;;;3.10;;
56746;SDS011;42623;49.978;9.966;2023-05-15T01:00:24;6.22;;;3.50;;
56746;SDS011;42623;49.978;9.966;2023-05-15T01:00:35;6.70;;;4.07;;
56746;SDS011;42623;49.978;9.966;2023-05-15T01:00:45;6.82;;;4.15;;
56746;SDS011;42623;49.978;9.966;2023-05-15T01:00:56;6.07;;;3.83;;
56746;SDS011;42623;49.978;9.966;2023-05-15T01:01:07;6.05;;;3.42;;
56746;SDS011;42623;49.978;9.966;2023-05-15T01:01:17;6.40;;;3.83;;
56746;SDS011;42623;49.978;9.966;2023-05-15T01:01:27;6.33;;;3.60;;
56746;SDS011;42623;49.978;9.966;2023-05-15T01:01:42;6.05;;;3.28;;
56746;SDS011;42623;49.978;9.966;2023-05-15T01:01:54;6.43;;;3.15;;
56746;SDS011;42623;49.978;9.966;2023-05-15T01:02:04;6.50;;;3.27;;
56746;SDS011;42623;49.978;9.966;2023-05-15T01:02:14;5.83;;;3.40;;
56746;SDS011;42623;49.978;9.966;2023-05-15T01:02:25;6.65;;;3.85;;
56746;SDS011;42623;49.978;9.966;2023-05-15T01:02:36;6.17;;;3.80;;
56746;SDS011;42623;49.978;9.966;2023-05-15T01:02:46;6.37;;;3.80;;
56746;SDS011;42623;49.978;9.966;2023-05-15T01:02:56;5.90;;;3.75;;
56746;SDS011;42623;49.978;9.966;2023-05-15T01:03:06;6.10;;;3.90;;
56746;SDS011;42623;49.978;9.966;2023-05-15T01:03:16;6.07;;;3.87;;
56746;SDS011;42623;49.978;9.966;2023-05-15T01:03:27;5.77;;;3.60;;
56746;SDS011;42623;49.978;9.966;2023-05-15T01:03:37;6.25;;;3.92;;